99NY weather

Hibbard's Airport
Wilson, New York, United States

Public forecast

Using degrees Fahrenheit for public forecast. Weather courtesy of forecast.io.

Closest aviation weather report (METAR) to Hibbard's Airport

Closest report is Niagara Falls International Airport, 10.3 nm (19.0 km) SW. Retrieved 2020/06/04 22:53 UTC (49 minutes ago):

KIAG 042253Z 20010KT 10SM CLR 23/17 A2978 RMK AO2 SLP083 T02330172

Closest aviation forecast (TAF) to Hibbard's Airport

Closest forecast is Niagara Falls International Airport, 10.3 nm (19.0 km) SW. Retrieved 2020/06/04 18:36 UTC (5 hours ago):

TAF KIAG 041733Z 0418/0518 22010G15KT P6SM SCT250 FM050000 21009KT P6SM SCT250 FM050800 21004KT P6SM BKN200 FM051100 21005KT P6SM SCT090 FM051600 21008KT P6SM SCT250